Perrin, Texas
Current Conditions -  °F | °C
As of 3:35 PM on Saturday 22 Nov 2014 (Local Time) from KXBP Reporting Station
Drizzle Drizzle  
Wind Chill: 60°   Ceiling: 300
Heat Index: 60°   Visibility: 1.7mi
Dew Point: 60°   Wind: 5mph
Humidity: 100%   Direction: 130°SE
Pressure: 29.85"   Gusts: NA
Location:  33.03°N, 98.07°W
Report Text: KXBP 222135Z AUTO 13004KT 1 3/4SM -DZ OVC003 16/16 A2985 RMK AO2 LTG DSNT SW T01560156
Loading
Personal Weather Stations






























Interactive Weather Map New forecast layout! Learn more

10-Day Weather Forecast

Advertisements
Track Severe Weather on mobile